Time;durP1;ratioP1;P1;durP2;ratioP2;P2;SDS_P1;SDS_P2;PMS_P1;PMS_P2;Temp;Humidity;BMP_temperature;BMP_pressure;BME280_temperature;BME280_humidity;BME280_pressure;Samples;Min_cycle;Max_cycle;Signal;HPM_P1;HPM_P2
2021/09/10 00:02:12;;;;;;;8.52;2.70;;;;;;;13.82;72.70;96748.84;5039679;28;20070;-59
2021/09/10 00:04:38;;;;;;;5.45;2.85;;;;;;;13.83;72.87;96750.56;5039529;28;20031;-59
2021/09/10 00:07:03;;;;;;;7.50;3.05;;;;;;;13.77;73.24;96749.09;5039493;28;20034;-60
2021/09/10 00:09:29;;;;;;;7.22;2.70;;;;;;;13.77;72.97;96753.47;5039562;28;20029;-59
2021/09/10 00:11:55;;;;;;;5.93;2.88;;;;;;;13.74;73.18;96751.84;5039453;28;20458;-60
2021/09/10 00:14:20;;;;;;;3.47;2.70;;;;;;;13.73;72.86;96746.69;5039354;28;20120;-59
2021/09/10 00:16:46;;;;;;;5.32;2.80;;;;;;;13.71;73.00;96752.00;5039485;28;20022;-59
2021/09/10 00:19:12;;;;;;;8.90;3.15;;;;;;;13.67;72.47;96749.59;5039393;28;20033;-59
2021/09/10 00:21:37;;;;;;;8.80;2.90;;;;;;;13.61;72.87;96746.31;5039365;28;20037;-59
2021/09/10 00:24:03;;;;;;;4.55;2.95;;;;;;;13.57;73.49;96747.38;5039390;28;20124;-59
2021/09/10 00:26:29;;;;;;;4.53;2.85;;;;;;;13.59;73.19;96742.91;5039327;28;20036;-59
2021/09/10 00:28:54;;;;;;;4.68;2.85;;;;;;;13.58;73.15;96743.81;5039277;28;20188;-59
2021/09/10 00:31:20;;;;;;;7.95;3.30;;;;;;;13.58;73.64;96743.81;5039253;28;20024;-60
2021/09/10 00:33:45;;;;;;;8.13;3.65;;;;;;;13.54;73.85;96741.44;5039217;28;20032;-59
2021/09/10 00:36:11;;;;;;;4.63;2.90;;;;;;;13.58;73.83;96754.34;5039331;28;20026;-59
2021/09/10 00:38:37;;;;;;;6.70;3.00;;;;;;;13.59;73.34;96752.56;5039273;28;20375;-58
2021/09/10 00:41:03;;;;;;;4.78;2.65;;;;;;;13.56;73.14;96748.31;5039100;28;20065;-59
2021/09/10 00:43:28;;;;;;;6.90;2.75;;;;;;;13.54;73.07;96754.56;5039213;28;20399;-58
2021/09/10 00:45:57;;;;;;;3.88;2.80;;;;;;;13.56;73.04;96752.72;5039198;28;20034;-59
2021/09/10 00:48:23;;;;;;;7.97;2.80;;;;;;;13.51;73.25;96761.66;5039230;28;20029;-59
2021/09/10 00:50:49;;;;;;;5.95;3.00;;;;;;;13.48;73.15;96759.16;5039303;28;20098;-59
2021/09/10 00:53:16;;;;;;;7.55;3.53;;;;;;;13.50;73.62;96756.47;5038918;28;20021;-59
2021/09/10 00:55:43;;;;;;;3.42;2.70;;;;;;;13.51;73.95;96760.81;5039108;28;20032;-60
2021/09/10 00:58:09;;;;;;;5.22;2.95;;;;;;;13.48;73.37;96764.41;5038767;28;20038;-59
2021/09/10 01:00:34;;;;;;;4.38;2.80;;;;;;;13.50;73.43;96762.59;5039137;28;20147;-60
2021/09/10 01:03:00;;;;;;;7.03;2.50;;;;;;;13.49;73.48;96760.00;5039017;28;20018;-59
2021/09/10 01:05:26;;;;;;;6.22;2.85;;;;;;;13.46;73.66;96766.25;5038959;28;20112;-59
2021/09/10 01:07:53;;;;;;;3.80;2.92;;;;;;;13.43;73.81;96762.91;5036097;28;20033;-59
2021/09/10 01:10:19;;;;;;;6.70;2.67;;;;;;;13.47;74.15;96774.97;5036004;28;20049;-60
2021/09/10 01:12:46;;;;;;;4.05;2.95;;;;;;;13.46;73.89;96770.66;5035810;28;20049;-59
2021/09/10 01:15:12;;;;;;;6.50;3.17;;;;;;;13.47;74.24;96772.34;5035779;28;20035;-59
2021/09/10 01:17:38;;;;;;;6.90;3.00;;;;;;;13.52;74.51;96770.41;5035691;28;20022;-59
2021/09/10 01:20:06;;;;;;;5.30;3.17;;;;;;;13.50;74.39;96772.25;5035641;28;20035;-59
2021/09/10 01:22:32;;;;;;;4.40;3.10;;;;;;;13.48;74.52;96764.41;5035630;28;20036;-60
2021/09/10 01:25:19;;;;;;;5.32;3.08;;;;;;;13.56;74.66;96763.22;5035640;28;20034;-60
2021/09/10 01:27:50;;;;;;;5.07;2.90;;;;;;;13.58;74.34;96764.03;5035624;28;20065;-59
2021/09/10 01:30:17;;;;;;;;;;;;;;;13.55;74.61;96765.03;5035932;28;20462;-59
2021/09/10 01:32:44;;;;;;;5.95;3.38;;;;;;;13.51;74.76;96763.44;5035455;28;19919;-59
2021/09/10 01:35:12;;;;;;;8.20;3.33;;;;;;;13.53;75.36;96761.59;5035297;28;20036;-59
2021/09/10 01:37:38;;;;;;;11.20;4.00;;;;;;;13.56;75.72;96771.97;5035351;28;20060;-59
2021/09/10 01:40:05;;;;;;;12.00;3.55;;;;;;;13.60;75.90;96768.28;5035280;28;20030;-59
2021/09/10 01:42:31;;;;;;;6.68;3.10;;;;;;;13.67;75.84;96768.84;5035210;28;20021;-59
2021/09/10 01:44:56;;;;;;;8.73;3.03;;;;;;;13.69;75.46;96771.41;5035184;28;20368;-59
2021/09/10 01:47:22;;;;;;;9.95;3.00;;;;;;;13.68;75.58;96756.53;5034008;28;20036;-58
2021/09/10 01:49:47;;;;;;;5.63;3.22;;;;;;;13.69;75.88;96758.25;5035167;28;20022;-56
2021/09/10 01:52:13;;;;;;;6.10;3.15;;;;;;;13.76;75.66;96754.41;5035081;28;20498;-58
2021/09/10 01:54:38;;;;;;;6.40;2.63;;;;;;;13.78;75.33;96755.19;5034969;28;20037;-58
2021/09/10 01:57:04;;;;;;;3.55;2.72;;;;;;;13.81;75.24;96760.28;5035058;28;20032;-58
2021/09/10 01:59:30;;;;;;;8.23;3.05;;;;;;;13.82;74.99;96759.34;5034756;28;20042;-58
2021/09/10 02:01:56;;;;;;;4.72;2.72;;;;;;;13.83;74.86;96762.84;5035082;28;20459;-58
2021/09/10 02:04:21;;;;;;;5.70;3.15;;;;;;;13.84;75.15;96757.53;5035043;28;20469;-58
2021/09/10 02:06:48;;;;;;;11.25;3.72;;;;;;;13.85;75.35;96761.00;5034814;28;20606;-58
2021/09/10 02:09:13;;;;;;;3.10;2.70;;;;;;;13.87;75.62;96760.00;5034821;28;20415;-58
2021/09/10 02:11:39;;;;;;;5.43;3.75;;;;;;;13.87;75.24;96760.00;5034892;28;20026;-58
2021/09/10 02:14:05;;;;;;;5.43;3.33;;;;;;;13.92;75.42;96759.78;5034628;28;20382;-58
2021/09/10 02:16:31;;;;;;;6.55;3.00;;;;;;;13.95;75.35;96748.25;5034667;28;20048;-59
2021/09/10 02:18:56;;;;;;;6.50;3.75;;;;;;;13.95;75.22;96750.91;5033548;28;20031;-58
2021/09/10 02:21:22;;;;;;;6.43;3.58;;;;;;;13.99;75.51;96755.06;5034597;28;20030;-58
2021/09/10 02:23:48;;;;;;;7.40;3.85;;;;;;;13.98;75.43;96753.38;5034558;28;20079;-58
2021/09/10 02:26:14;;;;;;;8.55;3.03;;;;;;;14.00;75.16;96756.78;5034377;28;20017;-58
2021/09/10 02:28:39;;;;;;;8.75;3.50;;;;;;;13.98;75.27;96748.97;5034313;28;20040;-58
2021/09/10 02:31:05;;;;;;;8.20;2.83;;;;;;;13.98;75.07;96751.59;5034321;28;20029;-58
2021/09/10 02:33:32;;;;;;;5.97;3.25;;;;;;;13.97;74.83;96755.13;5034226;28;20048;-58
2021/09/10 02:35:57;;;;;;;4.13;3.10;;;;;;;13.97;74.40;96749.88;5034228;28;20379;-59
2021/09/10 02:38:24;;;;;;;11.05;3.08;;;;;;;13.96;74.40;96745.56;5034151;28;20022;-59
2021/09/10 02:40:50;;;;;;;9.00;2.83;;;;;;;13.95;74.40;96745.63;5034241;28;20156;-58
2021/09/10 02:43:16;;;;;;;11.05;3.85;;;;;;;13.94;74.13;96744.78;5034174;28;20069;-59
2021/09/10 02:45:42;;;;;;;6.55;3.42;;;;;;;13.96;74.26;96742.06;5034140;28;20025;-58
2021/09/10 02:48:07;;;;;;;4.07;3.25;;;;;;;13.97;74.21;96742.00;5034060;28;20398;-58
2021/09/10 02:50:33;;;;;;;5.38;3.03;;;;;;;13.98;73.98;96748.13;5033995;28;20017;-59
2021/09/10 02:52:59;;;;;;;3.67;3.20;;;;;;;13.98;73.93;96742.84;5033805;28;20018;-58
2021/09/10 02:55:25;;;;;;;7.25;2.70;;;;;;;13.97;73.66;96744.63;5033860;28;20032;-58
2021/09/10 02:57:50;;;;;;;9.60;2.97;;;;;;;13.96;73.74;96737.66;5033656;28;20033;-58
2021/09/10 03:00:16;;;;;;;2.92;2.58;;;;;;;13.97;73.69;96739.38;5032723;28;20068;-58
2021/09/10 03:02:42;;;;;;;7.47;2.88;;;;;;;13.98;73.69;96735.84;5033729;28;20025;-58
2021/09/10 03:05:08;;;;;;;4.75;2.75;;;;;;;13.98;73.84;96740.22;5033728;28;20051;-58
2021/09/10 03:07:35;;;;;;;6.43;2.97;;;;;;;13.94;73.63;96733.41;5033901;28;20478;-58
2021/09/10 03:10:00;;;;;;;4.03;2.60;;;;;;;13.96;73.84;96732.41;5033625;28;20028;-58
2021/09/10 03:12:26;;;;;;;5.10;2.63;;;;;;;13.94;73.83;96733.41;5033533;28;20033;-59
2021/09/10 03:14:52;;;;;;;10.85;2.90;;;;;;;13.92;73.89;96727.38;5033514;28;20395;-58
2021/09/10 03:17:17;;;;;;;4.97;2.83;;;;;;;13.87;73.99;96728.44;5033451;28;20067;-58
2021/09/10 03:19:43;;;;;;;3.60;2.72;;;;;;;13.89;74.11;96728.38;5033584;28;20175;-58
2021/09/10 03:22:08;;;;;;;5.50;3.10;;;;;;;13.88;74.09;96727.53;5033495;28;20464;-58
2021/09/10 03:24:34;;;;;;;6.07;2.42;;;;;;;13.91;74.05;96731.81;5033468;28;20072;-58
2021/09/10 03:27:00;;;;;;;6.43;2.78;;;;;;;13.88;74.01;96731.94;5033356;28;20025;-58
2021/09/10 03:29:26;;;;;;;3.33;2.92;;;;;;;13.87;74.46;96728.44;5033191;28;20071;-58
2021/09/10 03:31:51;;;;;;;8.45;3.35;;;;;;;13.87;74.55;96730.22;5033037;28;20471;-59
2021/09/10 03:34:17;;;;;;;10.40;3.83;;;;;;;13.88;74.42;96731.94;5033241;28;20032;-58
2021/09/10 03:36:43;;;;;;;5.28;3.30;;;;;;;13.92;74.68;96740.53;5033132;28;20032;-57
2021/09/10 03:39:08;;;;;;;6.45;3.08;;;;;;;13.91;74.31;96734.44;5033287;28;20113;-58
2021/09/10 03:41:34;;;;;;;5.32;3.15;;;;;;;13.83;74.39;96731.31;5033242;28;20487;-58
2021/09/10 03:44:00;;;;;;;6.15;2.80;;;;;;;13.80;74.61;96737.56;5033283;28;20438;-58
2021/09/10 03:46:25;;;;;;;7.68;2.90;;;;;;;13.82;74.83;96729.59;5033166;28;20060;-58
2021/09/10 03:48:51;;;;;;;7.05;2.90;;;;;;;13.81;74.78;96731.38;5033122;28;20032;-58
2021/09/10 03:51:17;;;;;;;5.00;2.72;;;;;;;13.82;74.61;96727.81;5033022;28;20036;-58
2021/09/10 03:53:43;;;;;;;4.10;2.85;;;;;;;13.80;74.57;96734.94;5032886;28;20022;-58
2021/09/10 03:56:09;;;;;;;7.05;2.88;;;;;;;13.71;74.56;96719.59;5033046;28;20108;-58
2021/09/10 03:58:34;;;;;;;6.65;3.25;;;;;;;13.77;74.83;96730.69;5032818;28;20049;-58
2021/09/10 04:01:00;;;;;;;8.48;3.00;;;;;;;13.77;74.89;96729.81;5032967;28;20144;-59
2021/09/10 04:03:26;;;;;;;3.22;2.65;;;;;;;13.76;74.87;96736.00;5032854;28;20033;-58
2021/09/10 04:05:52;;;;;;;4.32;2.65;;;;;;;13.80;74.89;96740.19;5032969;28;20021;-58
2021/09/10 04:08:17;;;;;;;7.30;3.20;;;;;;;13.83;74.92;96736.56;5032898;28;20117;-58
2021/09/10 04:10:43;;;;;;;7.00;3.35;;;;;;;13.86;74.99;96739.03;5032979;28;20079;-58
2021/09/10 04:13:09;;;;;;;6.20;3.30;;;;;;;13.88;74.81;96732.78;5032863;28;20068;-58
2021/09/10 04:15:35;;;;;;;4.50;2.90;;;;;;;13.92;74.82;96743.16;5032866;28;20171;-58
2021/09/10 04:18:01;;;;;;;4.70;3.10;;;;;;;13.95;74.77;96737.75;5032866;28;20029;-58
2021/09/10 04:20:27;;;;;;;8.00;2.97;;;;;;;13.97;74.94;96736.72;5032787;28;20059;-58
2021/09/10 04:22:53;;;;;;;5.93;3.20;;;;;;;14.05;74.96;96739.00;5032744;28;20087;-58
2021/09/10 04:25:18;;;;;;;3.75;2.70;;;;;;;14.06;74.71;96745.94;5032775;28;20037;-58
2021/09/10 04:27:44;;;;;;;6.45;3.28;;;;;;;14.08;74.91;96744.09;5032557;28;20499;-58
2021/09/10 04:30:10;;;;;;;8.38;3.22;;;;;;;14.12;74.86;96744.81;5032760;28;20026;-59
2021/09/10 04:32:37;;;;;;;4.32;2.90;;;;;;;14.19;74.72;96748.00;5032698;28;20018;-59
2021/09/10 04:35:03;;;;;;;3.85;2.90;;;;;;;14.25;74.72;96747.69;5032651;28;20033;-59
2021/09/10 04:37:29;;;;;;;5.30;2.75;;;;;;;14.33;74.76;96749.94;5032606;28;20053;-58
2021/09/10 04:39:55;;;;;;;5.32;2.65;;;;;;;14.41;74.65;96747.78;5032487;28;20056;-58
2021/09/10 04:42:21;;;;;;;5.38;2.75;;;;;;;14.49;74.75;96756.16;5033611;28;20026;-58
2021/09/10 04:44:47;;;;;;;7.70;3.50;;;;;;;14.61;74.21;96756.44;5036366;28;20044;-59
2021/09/10 04:47:12;;;;;;;7.13;3.60;;;;;;;14.79;73.77;96757.31;5036255;28;20110;-58
2021/09/10 04:49:38;;;;;;;8.40;3.38;;;;;;;14.96;73.39;96759.06;5036222;28;20109;-59
2021/09/10 04:52:03;;;;;;;3.50;2.90;;;;;;;15.13;73.25;96752.91;5036137;28;20029;-58
2021/09/10 04:54:29;;;;;;;3.33;2.33;;;;;;;15.24;73.07;96754.13;5034834;28;20053;-58
2021/09/10 04:56:55;;;;;;;4.00;2.88;;;;;;;15.27;73.01;96749.53;5036150;28;20388;-59
2021/09/10 04:59:20;;;;;;;5.20;3.08;;;;;;;15.32;72.60;96746.63;5035888;28;20045;-58
2021/09/10 05:01:47;;;;;;;5.95;2.92;;;;;;;15.43;72.28;96748.69;5036032;28;20112;-59
2021/09/10 05:04:13;;;;;;;14.35;3.33;;;;;;;15.56;72.54;96745.41;5036138;28;20030;-59
2021/09/10 05:06:38;;;;;;;4.60;2.55;;;;;;;15.65;72.29;96743.09;5036083;28;20365;-59
2021/09/10 05:09:04;;;;;;;4.53;2.83;;;;;;;15.76;72.11;96744.28;5035899;28;20040;-58
2021/09/10 05:11:30;;;;;;;5.07;2.85;;;;;;;15.86;72.48;96748.09;5036011;28;20032;-58
2021/09/10 05:13:56;;;;;;;10.65;5.07;;;;;;;15.97;72.07;96744.91;5035621;28;20048;-58
2021/09/10 05:16:21;;;;;;;4.72;2.50;;;;;;;16.04;72.13;96748.91;5035855;28;20029;-58
2021/09/10 05:18:47;;;;;;;6.15;2.90;;;;;;;16.14;71.69;96751.00;5035921;28;20026;-58
2021/09/10 05:21:13;;;;;;;4.22;2.70;;;;;;;16.28;71.76;96747.56;5035776;28;20021;-58
2021/09/10 05:23:38;;;;;;;6.28;2.50;;;;;;;16.40;72.02;96749.50;5035656;28;20036;-58
2021/09/10 05:26:04;;;;;;;4.45;2.55;;;;;;;16.52;71.99;96747.94;5035578;28;20033;-59
2021/09/10 05:28:30;;;;;;;3.53;2.72;;;;;;;16.73;71.59;96746.72;5035472;28;20490;-59
2021/09/10 05:30:55;;;;;;;5.78;2.10;;;;;;;17.06;71.32;96750.91;5035540;28;20036;-58
2021/09/10 05:33:21;;;;;;;4.93;2.33;;;;;;;17.43;69.80;96747.84;5035452;28;20029;-59
2021/09/10 05:35:46;;;;;;;4.95;2.20;;;;;;;17.70;69.15;96748.84;5035594;28;20033;-58
2021/09/10 05:38:12;;;;;;;5.55;2.22;;;;;;;17.90;68.92;96743.13;5035328;28;20032;-59
2021/09/10 05:40:38;;;;;;;7.05;2.42;;;;;;;18.17;68.48;96744.94;5035371;28;20050;-58
2021/09/10 05:43:04;;;;;;;4.82;2.42;;;;;;;18.37;67.70;96744.56;5035279;28;20434;-59
2021/09/10 05:45:29;;;;;;;8.43;2.83;;;;;;;18.37;67.69;96747.22;5035214;28;20028;-58
2021/09/10 05:47:55;;;;;;;7.13;2.33;;;;;;;18.48;67.15;96754.44;5035224;28;20033;-59
2021/09/10 05:50:21;;;;;;;6.18;3.08;;;;;;;18.59;66.63;96743.13;5035197;28;20033;-58
2021/09/10 05:52:46;;;;;;;4.45;2.88;;;;;;;18.69;66.86;96747.69;5034814;28;20075;-58
2021/09/10 05:55:13;;;;;;;13.23;2.72;;;;;;;18.84;66.57;96741.47;5035057;28;20077;-58
2021/09/10 05:57:39;;;;;;;6.60;2.65;;;;;;;18.98;65.86;96745.78;5035154;28;20029;-58
2021/09/10 06:00:05;;;;;;;4.57;2.45;;;;;;;19.13;65.42;96743.91;5034735;28;20483;-58
2021/09/10 06:02:31;;;;;;;7.68;2.30;;;;;;;19.30;64.88;96738.28;5034916;28;20383;-58
2021/09/10 06:04:56;;;;;;;11.50;3.03;;;;;;;19.41;64.51;96745.47;5034842;28;20037;-59
2021/09/10 06:07:22;;;;;;;8.60;4.20;;;;;;;19.63;64.92;96737.81;5034921;28;20029;-59
2021/09/10 06:09:48;;;;;;;11.50;4.18;;;;;;;20.19;65.08;96745.25;5034769;28;20472;-59
2021/09/10 06:12:13;;;;;;;9.63;3.75;;;;;;;20.89;62.47;96749.81;5034348;28;20556;-59
2021/09/10 06:14:39;;;;;;;7.90;3.00;;;;;;;21.21;60.78;96754.50;5034588;28;20498;-58
2021/09/10 06:17:05;;;;;;;4.88;2.15;;;;;;;21.53;60.21;96741.41;5034628;28;20064;-59
2021/09/10 06:19:31;;;;;;;11.77;2.58;;;;;;;22.05;59.02;96748.84;5034579;28;20384;-59
2021/09/10 06:21:56;;;;;;;11.98;2.40;;;;;;;22.73;57.01;96758.44;5034533;28;20033;-59
2021/09/10 06:24:22;;;;;;;3.97;2.70;;;;;;;23.26;55.49;96753.13;5034523;28;20460;-59
2021/09/10 06:26:48;;;;;;;5.57;2.38;;;;;;;23.30;53.94;96763.38;5034467;28;20033;-59
2021/09/10 06:29:13;;;;;;;9.60;2.58;;;;;;;23.46;53.71;96756.75;5034589;28;20388;-59
2021/09/10 06:31:39;;;;;;;5.60;2.53;;;;;;;23.69;52.17;96759.22;5034331;28;20099;-59
2021/09/10 06:34:06;;;;;;;8.27;3.95;;;;;;;24.03;51.01;96763.34;5034178;28;20068;-59
2021/09/10 06:36:32;;;;;;;9.32;2.72;;;;;;;24.22;49.98;96760.75;5034289;28;20490;-59
2021/09/10 06:38:57;;;;;;;7.32;2.92;;;;;;;24.20;49.57;96762.72;5034171;28;20124;-59
2021/09/10 06:41:23;;;;;;;5.28;2.75;;;;;;;24.41;49.67;96763.59;5034106;28;20072;-60
2021/09/10 06:43:48;;;;;;;6.15;2.30;;;;;;;24.65;49.06;96773.81;5034092;28;20022;-60
2021/09/10 06:46:14;;;;;;;4.28;2.03;;;;;;;24.61;48.65;96765.25;5034074;28;20068;-59
2021/09/10 06:48:40;;;;;;;8.20;3.05;;;;;;;24.43;48.75;96770.47;5034120;28;20030;-59
2021/09/10 06:51:06;;;;;;;9.60;2.50;;;;;;;24.31;48.44;96767.09;5033907;28;20041;-59
2021/09/10 06:53:34;;;;;;;17.30;2.40;;;;;;;24.17;48.29;96765.66;5033800;28;20108;-60
2021/09/10 06:56:00;;;;;;;7.03;2.45;;;;;;;24.04;48.93;96778.41;5033858;28;20055;-59
2021/09/10 06:58:26;;;;;;;10.95;2.50;;;;;;;23.92;48.93;96775.00;5033801;28;20387;-60
2021/09/10 07:00:52;;;;;;;7.13;2.72;;;;;;;23.97;48.97;96776.31;5033816;28;20030;-59
2021/09/10 07:03:18;;;;;;;10.32;2.72;;;;;;;24.17;48.35;96776.34;5033725;28;20032;-59
2021/09/10 07:05:43;;;;;;;14.40;2.50;;;;;;;24.35;48.10;96773.84;5033076;28;20030;-59
2021/09/10 07:08:09;;;;;;;9.52;2.17;;;;;;;24.60;47.86;96776.91;5033702;28;20024;-59
2021/09/10 07:10:35;;;;;;;5.95;2.30;;;;;;;24.63;45.66;96775.81;5033711;28;20361;-60
2021/09/10 07:13:01;;;;;;;6.30;2.42;;;;;;;24.51;44.37;96782.28;5033573;28;20029;-59
2021/09/10 07:15:26;;;;;;;4.30;2.25;;;;;;;24.63;44.15;96788.31;5033664;28;20032;-59
2021/09/10 07:17:52;;;;;;;8.20;2.67;;;;;;;24.81;43.25;96789.31;5033627;28;20487;-59
2021/09/10 07:20:18;;;;;;;6.90;2.15;;;;;;;25.07;44.02;96788.72;5033415;28;20467;-59
2021/09/10 07:22:43;;;;;;;9.25;2.33;;;;;;;25.31;42.87;96789.25;5033594;28;20479;-59
2021/09/10 07:25:09;;;;;;;5.60;2.30;;;;;;;25.39;42.93;96788.50;5033461;28;20459;-59
2021/09/10 07:27:34;;;;;;;4.68;2.00;;;;;;;25.78;42.52;96790.22;5033408;28;20075;-59
2021/09/10 07:30:00;;;;;;;9.15;2.53;;;;;;;26.07;41.40;96787.38;5033421;28;20044;-60
2021/09/10 07:32:25;;;;;;;4.22;2.20;;;;;;;26.36;40.93;96790.88;5032149;28;20498;-59
2021/09/10 07:34:51;;;;;;;3.92;1.90;;;;;;;26.75;39.36;96790.56;5033208;28;20121;-60
2021/09/10 07:37:17;;;;;;;6.97;2.30;;;;;;;26.81;37.83;96796.31;5033248;28;20034;-59
2021/09/10 07:39:43;;;;;;;7.13;2.45;;;;;;;26.87;39.85;96795.69;5033320;28;20025;-60
2021/09/10 07:42:08;;;;;;;24.38;3.13;;;;;;;27.11;39.57;96796.91;5033177;28;20037;-59
2021/09/10 07:44:34;;;;;;;3.67;2.20;;;;;;;27.56;39.36;96794.13;5033091;28;20025;-59
2021/09/10 07:46:59;;;;;;;5.82;1.90;;;;;;;27.78;36.64;96798.13;5033185;28;20045;-59
2021/09/10 07:49:25;;;;;;;8.20;1.88;;;;;;;27.97;33.06;96793.53;5033154;28;20491;-59
2021/09/10 07:51:51;;;;;;;3.55;1.42;;;;;;;27.47;29.35;96802.16;5033068;28;20036;-59
2021/09/10 07:54:17;;;;;;;4.63;1.80;;;;;;;26.81;30.90;96798.97;5032887;28;20110;-58
2021/09/10 07:56:42;;;;;;;9.30;1.75;;;;;;;26.41;30.59;96796.63;5033137;28;20029;-60
2021/09/10 07:59:08;;;;;;;9.23;2.13;;;;;;;26.25;33.01;96795.44;5032758;28;20096;-58
2021/09/10 08:01:33;;;;;;;2.55;1.42;;;;;;;26.02;30.90;96789.66;5033103;28;20059;-59
2021/09/10 08:03:59;;;;;;;4.78;2.03;;;;;;;26.06;32.64;96798.22;5033135;28;20379;-59
2021/09/10 08:06:25;;;;;;;5.90;1.85;;;;;;;26.06;34.29;96790.19;5032886;28;20380;-59
2021/09/10 08:08:51;;;;;;;3.65;1.88;;;;;;;25.35;34.68;96796.00;5032947;28;20022;-59
2021/09/10 08:11:16;;;;;;;6.40;1.73;;;;;;;25.08;33.46;96784.22;5032911;28;20172;-60
2021/09/10 08:13:42;;;;;;;8.70;1.98;;;;;;;24.92;35.50;96793.69;5032730;28;20034;-60
2021/09/10 08:16:08;;;;;;;7.85;1.80;;;;;;;24.79;36.35;96793.09;5033513;28;20029;-59
2021/09/10 08:18:34;;;;;;;6.93;1.95;;;;;;;24.58;34.38;96786.94;5036830;28;20018;-58
2021/09/10 08:21:00;;;;;;;7.47;1.98;;;;;;;24.40;35.56;96786.78;5036825;28;20059;-59
2021/09/10 08:23:26;;;;;;;2.75;1.80;;;;;;;24.14;35.83;96778.47;5036747;28;20041;-60
2021/09/10 08:25:52;;;;;;;2.80;1.42;;;;;;;24.18;34.78;96775.38;5036744;28;20025;-58
2021/09/10 08:28:19;;;;;;;5.80;1.95;;;;;;;24.17;35.84;96780.84;5036736;28;20025;-59
2021/09/10 08:30:48;;;;;;;2.47;1.50;;;;;;;23.90;36.77;96779.66;5036593;28;20156;-60
2021/09/10 08:33:13;;;;;;;4.03;1.52;;;;;;;23.70;33.67;96771.56;5036424;28;20105;-58
2021/09/10 08:35:40;;;;;;;2.45;1.77;;;;;;;23.58;34.04;96776.16;5036738;28;20022;-59
2021/09/10 08:38:06;;;;;;;2.53;1.42;;;;;;;23.33;35.83;96767.63;5036522;28;20018;-58
2021/09/10 08:40:35;;;;;;;2.47;1.83;;;;;;;23.20;35.16;96760.66;5036456;28;20025;-59
2021/09/10 08:43:02;;;;;;;2.75;1.42;;;;;;;23.67;35.00;96766.50;5036370;28;20022;-58
2021/09/10 08:45:29;;;;;;;4.60;1.90;;;;;;;23.87;34.00;96763.91;5036336;28;20025;-58
2021/09/10 08:47:55;;;;;;;2.30;1.48;;;;;;;24.19;37.96;96754.81;5036381;28;20480;-58
2021/09/10 08:50:23;;;;;;;3.60;1.42;;;;;;;24.50;32.84;96760.03;5036295;28;20075;-59
2021/09/10 08:52:52;;;;;;;5.40;1.38;;;;;;;24.57;33.55;96761.19;5036206;28;20036;-58
2021/09/10 08:55:19;;;;;;;3.88;2.03;;;;;;;24.79;35.21;96753.84;5035996;28;20026;-60
2021/09/10 08:57:52;;;;;;;7.00;1.88;;;;;;;25.14;35.07;96746.19;5036106;28;20021;-59
2021/09/10 09:00:29;;;;;;;3.67;1.90;;;;;;;25.21;30.80;96752.66;5036112;28;20484;-60
2021/09/10 09:02:58;;;;;;;3.83;1.33;;;;;;;24.97;32.21;96753.13;5036111;28;20037;-59
2021/09/10 09:05:24;;;;;;;2.92;1.50;;;;;;;25.02;29.30;96742.84;5036147;28;20464;-59
2021/09/10 09:07:50;;;;;;;3.45;1.60;;;;;;;24.99;28.79;96737.78;5035865;28;20029;-59
2021/09/10 09:10:15;;;;;;;7.15;1.45;;;;;;;24.89;29.23;96739.66;5035863;28;20029;-59
2021/09/10 09:12:41;;;;;;;3.85;1.45;;;;;;;24.90;29.91;96744.84;5035937;28;20076;-59
2021/09/10 09:15:07;;;;;;;3.38;1.55;;;;;;;24.74;28.55;96743.56;5035824;28;20104;-58
2021/09/10 09:17:38;;;;;;;6.80;1.48;;;;;;;24.43;27.47;96745.56;5035788;28;20044;-58
2021/09/10 09:20:13;;;;;;;5.97;1.20;;;;;;;24.42;29.21;96741.19;5035811;28;20029;-59
2021/09/10 09:22:59;;;;;;;4.75;1.48;;;;;;;24.41;27.70;96736.84;5035836;28;20033;-59
2021/09/10 09:25:29;;;;;;;4.07;1.42;;;;;;;24.45;28.04;96736.44;5035625;28;20030;-60
2021/09/10 09:27:55;;;;;;;3.83;1.73;;;;;;;24.17;28.66;96736.25;5034926;28;20030;-59
2021/09/10 09:30:34;;;;;;;1.90;1.15;;;;;;;24.12;27.50;96733.16;5035558;28;20030;-58
2021/09/10 09:33:01;;;;;;;4.13;1.63;;;;;;;24.10;25.99;96735.97;5035482;28;20107;-58
2021/09/10 09:35:31;;;;;;;7.95;1.42;;;;;;;23.84;27.14;96731.13;5035407;28;20029;-58
2021/09/10 09:37:57;;;;;;;4.13;1.17;;;;;;;24.08;29.71;96726.41;5035408;28;20060;-58
2021/09/10 09:40:33;;;;;;;11.52;1.75;;;;;;;24.30;27.13;96724.47;5035318;28;20336;-59
2021/09/10 09:43:11;;;;;;;3.45;1.40;;;;;;;24.57;29.72;96730.94;5035272;28;20546;-59
2021/09/10 09:45:36;;;;;;;3.83;1.17;;;;;;;24.71;28.35;96724.31;5035279;28;20471;-59
2021/09/10 09:48:09;;;;;;;2.38;1.42;;;;;;;24.80;27.37;96728.78;5035153;28;20155;-59
2021/09/10 09:50:35;;;;;;;2.25;1.10;;;;;;;24.72;28.18;96723.31;5035247;28;20108;-58
2021/09/10 09:53:01;;;;;;;3.00;1.13;;;;;;;24.51;26.60;96727.00;5035165;28;20527;-60
2021/09/10 09:55:28;;;;;;;4.32;1.05;;;;;;;24.65;28.47;96719.53;5035197;28;20065;-59
2021/09/10 09:57:55;;;;;;;2.05;1.42;;;;;;;24.87;27.57;96710.38;5034762;28;20100;-60
2021/09/10 10:00:20;;;;;;;2.25;1.50;;;;;;;25.02;27.98;96716.09;5035011;28;20360;-58
2021/09/10 10:02:46;;;;;;;3.72;1.55;;;;;;;25.25;27.16;96707.69;5034969;28;20036;-58
2021/09/10 10:05:16;;;;;;;3.20;1.35;;;;;;;25.40;27.73;96709.91;5035106;28;20499;-60
2021/09/10 10:07:46;;;;;;;2.15;1.55;;;;;;;25.43;26.50;96709.63;5034971;28;20034;-59
2021/09/10 10:10:19;;;;;;;2.65;1.70;;;;;;;25.04;25.55;96706.06;5034888;28;20471;-59
2021/09/10 10:12:48;;;;;;;2.03;1.27;;;;;;;24.85;27.73;96701.59;5034866;28;20041;-59
2021/09/10 10:15:25;;;;;;;1.52;1.25;;;;;;;24.66;30.47;96700.66;5034771;28;20029;-59
2021/09/10 10:17:52;;;;;;;5.35;1.38;;;;;;;24.52;29.38;96703.75;5034744;28;20021;-59
2021/09/10 10:20:46;;;;;;;1.65;1.20;;;;;;;24.26;26.33;96709.72;5034592;28;20081;-59
2021/09/10 10:23:42;;;;;;;2.08;1.20;;;;;;;24.30;25.15;96703.09;5034505;28;20376;-59
2021/09/10 10:26:13;;;;;;;2.05;1.17;;;;;;;24.31;27.37;96691.41;5034621;28;20463;-59
2021/09/10 10:28:54;;;;;;;1.35;1.08;;;;;;;24.42;27.93;96695.78;5034535;28;20116;-60
2021/09/10 10:31:57;;;;;;;0.88;0.88;;;;;;;24.69;25.08;96699.53;5034359;28;20475;-59
2021/09/10 10:34:24;;;;;;;1.30;1.00;;;;;;;24.85;25.45;96698.94;5034210;28;20029;-59
2021/09/10 10:36:50;;;;;;;2.40;1.23;;;;;;;24.74;25.50;96700.78;5034258;28;20451;-59
2021/09/10 10:39:26;;;;;;;3.70;0.93;;;;;;;24.77;23.80;96699.66;5033867;28;20388;-59
2021/09/10 10:41:57;;;;;;;3.03;1.00;;;;;;;24.90;23.11;96698.53;5033972;28;20060;-59
2021/09/10 10:44:35;;;;;;;3.70;1.10;;;;;;;24.80;22.68;96690.50;5034071;28;20033;-59
2021/09/10 10:47:08;;;;;;;1.05;0.95;;;;;;;24.82;21.96;96689.38;5034141;28;20037;-59
2021/09/10 10:49:52;;;;;;;2.00;0.73;;;;;;;24.77;24.46;96685.44;5034084;28;20414;-58
2021/09/10 10:52:26;;;;;;;2.40;1.10;;;;;;;24.88;23.72;96687.97;5034167;28;20419;-58
2021/09/10 10:55:31;;;;;;;1.52;0.98;;;;;;;24.99;23.87;96692.31;5033846;28;20116;-58
2021/09/10 10:58:28;;;;;;;1.50;1.08;;;;;;;25.08;21.61;96688.75;5011724;28;20042;-58
2021/09/10 11:01:03;;;;;;;2.67;1.17;;;;;;;24.93;21.86;96695.56;5034040;28;20100;-60
2021/09/10 11:03:36;;;;;;;2.40;1.17;;;;;;;24.60;23.11;96687.88;5033919;28;20430;-59
2021/09/10 11:06:28;;;;;;;2.28;1.10;;;;;;;24.81;23.30;96686.84;5033856;28;20096;-59
2021/09/10 11:08:55;;;;;;;1.75;0.80;;;;;;;25.01;21.81;96689.50;5032676;28;20045;-58
2021/09/10 11:11:24;;;;;;;1.38;0.85;;;;;;;25.12;19.90;96689.31;5033767;28;20025;-58
2021/09/10 11:13:51;;;;;;;1.67;0.90;;;;;;;25.13;20.29;96682.94;5033552;28;20387;-58
2021/09/10 11:16:28;;;;;;;1.42;0.93;;;;;;;25.20;21.91;96684.03;5033762;28;20469;-58
2021/09/10 11:18:54;;;;;;;0.85;0.75;;;;;;;25.15;21.28;96691.69;5033752;28;20424;-59
2021/09/10 11:21:26;;;;;;;2.83;1.20;;;;;;;25.24;22.54;96682.78;5033628;28;20060;-58
2021/09/10 11:23:52;;;;;;;1.92;1.02;;;;;;;25.29;22.05;96677.00;5033482;28;20025;-59
2021/09/10 11:26:17;;;;;;;2.33;1.50;;;;;;;25.40;22.86;96670.56;5033365;28;20037;-59
2021/09/10 11:28:43;;;;;;;1.85;1.20;;;;;;;25.43;20.96;96677.50;5033387;28;20550;-59
2021/09/10 11:31:09;;;;;;;4.47;0.95;;;;;;;25.32;22.32;96674.03;5033422;28;20533;-58
2021/09/10 11:33:43;;;;;;;3.80;1.10;;;;;;;25.35;22.14;96667.53;5033251;28;20037;-59
2021/09/10 11:36:09;;;;;;;2.28;1.08;;;;;;;25.40;21.73;96667.06;5033239;28;20056;-59